createdAt,value
2022-09-23T00:00:45.631Z,5.40
2022-09-23T00:03:12.696Z,5.30
2022-09-23T00:05:39.328Z,5.30
2022-09-23T00:08:07.527Z,5.30
2022-09-23T00:10:37.699Z,5.30
2022-09-23T00:13:05.869Z,5.30
2022-09-23T00:15:37.748Z,5.20
2022-09-23T00:18:04.465Z,5.20
2022-09-23T00:20:33.722Z,5.20
2022-09-23T00:23:00.535Z,5.20
2022-09-23T00:25:29.662Z,5.20
2022-09-23T00:27:57.087Z,5.20
2022-09-23T00:30:23.791Z,5.20
2022-09-23T00:32:50.562Z,5.10
2022-09-23T00:35:18.106Z,5.10
2022-09-23T00:37:44.774Z,5.10
2022-09-23T00:40:13.191Z,5.10
2022-09-23T00:42:47.878Z,5.10
2022-09-23T00:45:15.467Z,5.00
2022-09-23T00:47:48.099Z,5.00
2022-09-23T00:50:30.228Z,5.00
2022-09-23T00:52:59.381Z,5.00
2022-09-23T00:55:32.995Z,5.00
2022-09-23T00:58:02.762Z,5.00
2022-09-23T01:00:29.525Z,4.90
2022-09-23T01:02:56.148Z,5.00
2022-09-23T01:05:23.371Z,4.90
2022-09-23T01:07:50.808Z,4.90
2022-09-23T01:10:18.561Z,4.80
2022-09-23T01:12:58.593Z,4.80
2022-09-23T01:15:34.455Z,4.80
2022-09-23T01:18:41.319Z,4.80
2022-09-23T01:21:28.692Z,4.80
2022-09-23T01:23:58.456Z,4.70
2022-09-23T01:26:54.392Z,4.70
2022-09-23T01:29:51.780Z,4.70
2022-09-23T01:32:35.182Z,4.60
2022-09-23T01:35:19.296Z,4.60
2022-09-23T01:38:04.034Z,4.60
2022-09-23T01:40:42.578Z,4.60
2022-09-23T01:43:30.171Z,4.50
2022-09-23T01:45:59.998Z,4.60
2022-09-23T01:48:58.731Z,4.60
2022-09-23T01:51:32.473Z,4.50
2022-09-23T01:54:09.712Z,4.40
2022-09-23T01:56:41.596Z,4.40
2022-09-23T01:59:39.031Z,4.40
2022-09-23T02:02:22.038Z,4.40
2022-09-23T02:05:10.456Z,4.40
2022-09-23T02:07:43.733Z,4.40
2022-09-23T02:10:15.502Z,4.30
2022-09-23T02:12:46.875Z,4.30
2022-09-23T02:15:27.519Z,4.30
2022-09-23T02:18:25.354Z,4.30
2022-09-23T02:20:58.513Z,4.30
2022-09-23T02:23:35.324Z,4.30
2022-09-23T02:26:40.231Z,4.30
2022-09-23T02:29:28.625Z,4.20
2022-09-23T02:32:12.640Z,4.20
2022-09-23T02:34:57.258Z,4.20
2022-09-23T02:38:06.774Z,4.20
2022-09-23T02:40:52.934Z,4.20
2022-09-23T02:43:59.576Z,4.20
2022-09-23T02:46:27.049Z,4.20
2022-09-23T02:48:58.470Z,4.10
2022-09-23T02:51:32.510Z,4.10
2022-09-23T02:53:59.370Z,4.10
2022-09-23T02:56:26.040Z,4.10
2022-09-23T02:58:54.268Z,4.10
2022-09-23T03:02:05.027Z,4.00
2022-09-23T03:05:06.994Z,4.00
2022-09-23T03:07:57.206Z,4.00
2022-09-23T03:10:49.029Z,4.10
2022-09-23T03:13:31.434Z,4.00
2022-09-23T03:16:15.898Z,4.00
2022-09-23T03:18:51.384Z,4.00
2022-09-23T03:21:31.413Z,4.00
2022-09-23T03:24:00.632Z,4.00
2022-09-23T03:26:33.436Z,4.00
2022-09-23T03:29:04.542Z,4.00
2022-09-23T03:31:33.213Z,4.00
2022-09-23T03:34:05.092Z,4.00
2022-09-23T03:36:52.086Z,4.00
2022-09-23T03:39:34.161Z,4.00
2022-09-23T03:42:06.685Z,3.90
2022-09-23T03:44:39.616Z,3.90
2022-09-23T03:47:06.786Z,3.90
2022-09-23T03:49:37.039Z,3.90
2022-09-23T03:52:03.734Z,3.90
2022-09-23T03:54:30.446Z,3.90
2022-09-23T03:56:58.377Z,3.90
2022-09-23T03:59:25.855Z,3.90
2022-09-23T04:01:53.372Z,3.90
2022-09-23T04:04:20.201Z,3.80
2022-09-23T04:06:46.937Z,3.80
2022-09-23T04:09:13.563Z,3.80
2022-09-23T04:11:40.259Z,3.80
2022-09-23T04:14:08.268Z,3.80
2022-09-23T04:16:34.948Z,3.80
2022-09-23T04:19:01.699Z,3.80
2022-09-23T04:21:30.190Z,3.80
2022-09-23T04:23:56.795Z,3.70
2022-09-23T04:26:23.454Z,3.70
2022-09-23T04:28:50.110Z,3.70
2022-09-23T04:31:16.952Z,3.70
2022-09-23T04:33:43.561Z,3.70
2022-09-23T04:36:10.154Z,3.60
2022-09-23T04:38:36.781Z,3.60
2022-09-23T04:41:03.436Z,3.60
2022-09-23T04:43:30.180Z,3.60
2022-09-23T04:46:01.239Z,3.60
2022-09-23T04:48:29.040Z,3.60
2022-09-23T04:51:09.220Z,3.60
2022-09-23T04:53:37.025Z,3.60
2022-09-23T04:56:12.630Z,3.60
2022-09-23T04:58:40.266Z,3.60
2022-09-23T05:01:18.520Z,3.60
2022-09-23T05:03:46.645Z,3.60
2022-09-23T05:06:14.533Z,3.60
2022-09-23T05:08:46.169Z,3.60
2022-09-23T05:11:12.806Z,3.60
2022-09-23T05:13:39.491Z,3.70
2022-09-23T05:16:09.667Z,3.60
2022-09-23T05:18:37.356Z,3.70
2022-09-23T05:21:04.364Z,3.70
2022-09-23T05:23:31.025Z,3.70
2022-09-23T05:26:02.445Z,3.80
2022-09-23T05:28:31.471Z,3.80
2022-09-23T05:31:19.343Z,3.80
2022-09-23T05:33:54.452Z,3.90
2022-09-23T05:36:22.810Z,3.90
2022-09-23T05:38:51.401Z,3.90
2022-09-23T05:41:20.434Z,4.00
2022-09-23T05:43:47.394Z,4.00
2022-09-23T05:46:20.669Z,4.00
2022-09-23T05:48:47.480Z,4.10
2022-09-23T05:51:20.229Z,4.10
2022-09-23T05:53:47.701Z,4.10
2022-09-23T05:56:17.015Z,4.20
2022-09-23T05:58:43.886Z,4.30
2022-09-23T06:01:18.066Z,4.30
2022-09-23T06:03:49.004Z,4.40
2022-09-23T06:06:18.019Z,4.40
2022-09-23T06:08:45.914Z,4.50
2022-09-23T06:11:13.730Z,4.50
2022-09-23T06:13:41.551Z,4.60
2022-09-23T06:16:10.312Z,4.60
2022-09-23T06:18:41.689Z,4.70
2022-09-23T06:21:11.638Z,4.70
2022-09-23T06:26:34.246Z,4.80
2022-09-23T06:29:02.750Z,4.90
2022-09-23T06:31:30.120Z,4.90
2022-09-23T06:34:16.392Z,5.00
2022-09-23T06:36:45.967Z,5.10
2022-09-23T06:39:14.493Z,5.20
2022-09-23T06:41:41.167Z,5.20
2022-09-23T06:44:07.889Z,5.30
2022-09-23T06:46:36.514Z,5.40
2022-09-23T06:49:03.730Z,5.60
2022-09-23T06:51:30.406Z,5.70
2022-09-23T06:53:57.091Z,5.80
2022-09-23T06:56:24.677Z,5.90
2022-09-23T06:58:54.703Z,6.10
2022-09-23T07:01:22.651Z,6.20
2022-09-23T07:03:49.285Z,6.30
2022-09-23T07:06:16.307Z,6.40
2022-09-23T07:08:45.052Z,6.60
2022-09-23T07:11:13.132Z,6.70
2022-09-23T07:13:41.317Z,6.80
2022-09-23T07:16:08.927Z,7.00
2022-09-23T07:18:37.385Z,7.10
2022-09-23T07:21:15.061Z,7.30
2022-09-23T07:23:42.667Z,7.40
2022-09-23T07:26:09.356Z,7.60
2022-09-23T07:28:37.306Z,7.70
2022-09-23T07:31:07.625Z,7.80
2022-09-23T07:33:36.934Z,8.00
2022-09-23T07:36:10.118Z,8.10
2022-09-23T07:38:41.647Z,8.30
2022-09-23T07:41:14.424Z,8.40
2022-09-23T07:43:41.334Z,8.70
2022-09-23T07:46:11.571Z,8.80
2022-09-23T07:48:38.837Z,8.90
2022-09-23T07:51:35.693Z,9.10
2022-09-23T07:54:05.416Z,9.10
2022-09-23T07:56:32.095Z,9.20
2022-09-23T07:59:02.947Z,9.30
2022-09-23T08:01:35.930Z,9.50
2022-09-23T08:04:08.705Z,9.60
2022-09-23T08:06:36.737Z,9.60
2022-09-23T08:09:03.517Z,9.70
2022-09-23T08:11:31.258Z,9.70
2022-09-23T08:13:57.922Z,9.90
2022-09-23T08:16:24.680Z,10.00
2022-09-23T08:18:51.582Z,10.10
2022-09-23T08:21:22.409Z,10.20
2022-09-23T08:23:49.539Z,10.40
2022-09-23T08:26:21.579Z,10.50
2022-09-23T08:28:49.040Z,10.60
2022-09-23T08:31:15.734Z,10.70
2022-09-23T08:33:43.157Z,10.80
2022-09-23T08:36:09.909Z,10.90
2022-09-23T08:38:36.512Z,11.00
2022-09-23T08:41:29.542Z,11.10
2022-09-23T08:44:02.107Z,11.20
2022-09-23T08:46:34.783Z,11.30
2022-09-23T08:49:01.821Z,11.50
2022-09-23T08:51:35.769Z,11.60
2022-09-23T08:54:02.652Z,11.70
2022-09-23T08:56:30.978Z,11.90
2022-09-23T08:59:15.244Z,12.00
2022-09-23T09:02:13.738Z,12.10
2022-09-23T09:04:47.706Z,12.20
2022-09-23T09:07:37.966Z,12.40
2022-09-23T09:10:11.729Z,12.50
2022-09-23T09:12:45.030Z,12.60
2022-09-23T09:15:16.141Z,12.70
2022-09-23T09:17:51.570Z,12.80
2022-09-23T09:20:32.333Z,12.90
2022-09-23T09:23:02.703Z,12.90
2022-09-23T09:25:45.474Z,13.00
2022-09-23T09:28:31.179Z,13.20
2022-09-23T09:31:02.589Z,13.20
2022-09-23T09:33:58.033Z,13.30
2022-09-23T09:36:39.864Z,13.50
2022-09-23T09:39:11.312Z,13.50
2022-09-23T09:41:43.999Z,13.70
2022-09-23T09:44:42.360Z,13.70
2022-09-23T09:47:15.481Z,13.80
2022-09-23T09:49:50.039Z,13.80
2022-09-23T09:52:23.725Z,13.90
2022-09-23T09:54:51.629Z,14.00
2022-09-23T09:57:33.697Z,14.00
2022-09-23T10:00:26.419Z,14.20
2022-09-23T10:02:56.787Z,14.30
2022-09-23T10:05:27.039Z,14.40
2022-09-23T10:07:54.122Z,14.50
2022-09-23T10:10:32.754Z,14.50
2022-09-23T10:13:17.707Z,14.60
2022-09-23T10:15:45.514Z,14.70
2022-09-23T10:18:21.696Z,14.90
2022-09-23T10:20:48.443Z,14.90
2022-09-23T10:23:24.464Z,15.00
2022-09-23T10:26:05.192Z,15.20
2022-09-23T10:28:41.184Z,15.40
2022-09-23T10:31:11.532Z,15.40
2022-09-23T10:33:54.771Z,15.60
2022-09-23T10:36:21.750Z,15.70
2022-09-23T10:38:53.644Z,15.90
2022-09-23T10:41:54.513Z,16.00
2022-09-23T10:45:07.415Z,16.30
2022-09-23T10:48:00.589Z,16.60
2022-09-23T10:50:41.975Z,16.80
2022-09-23T10:53:28.248Z,16.80
2022-09-23T10:56:15.737Z,17.00
2022-09-23T10:59:11.861Z,17.30
2022-09-23T11:01:59.147Z,17.40
2022-09-23T11:04:34.442Z,17.50
2022-09-23T11:07:19.417Z,17.80
2022-09-23T11:10:35.404Z,18.00
2022-09-23T11:13:20.650Z,18.30
2022-09-23T11:16:06.781Z,18.50
2022-09-23T11:18:59.336Z,18.50
2022-09-23T11:22:01.123Z,18.70
2022-09-23T11:24:50.067Z,18.80
2022-09-23T11:27:41.180Z,18.90
2022-09-23T11:30:22.856Z,18.80
2022-09-23T11:33:13.966Z,18.70
2022-09-23T11:35:56.761Z,18.80
2022-09-23T11:38:31.031Z,19.10
2022-09-23T11:41:19.678Z,19.10
2022-09-23T11:43:52.330Z,19.20
2022-09-23T11:46:33.138Z,19.10
2022-09-23T11:49:11.980Z,19.20
2022-09-23T11:52:02.982Z,19.10
2022-09-23T11:54:51.710Z,19.00
2022-09-23T11:57:49.326Z,19.00
2022-09-23T12:00:27.627Z,19.20
2022-09-23T12:03:11.018Z,19.30
2022-09-23T12:05:47.429Z,19.40
2022-09-23T12:08:29.280Z,19.80
2022-09-23T12:11:27.043Z,20.10
2022-09-23T12:14:12.370Z,19.90
2022-09-23T12:16:57.969Z,20.00
2022-09-23T12:19:34.172Z,20.30
2022-09-23T12:22:42.970Z,20.40
2022-09-23T12:25:46.566Z,20.60
2022-09-23T12:28:36.058Z,20.70
2022-09-23T12:31:04.748Z,20.70
2022-09-23T12:33:35.773Z,20.70
2022-09-23T12:36:08.457Z,21.00
2022-09-23T12:38:55.731Z,21.20
2022-09-23T12:41:36.920Z,21.10
2022-09-23T12:44:15.628Z,20.90
2022-09-23T12:46:46.507Z,20.80
2022-09-23T12:49:37.166Z,21.00
2022-09-23T12:52:25.128Z,21.20
2022-09-23T12:54:56.649Z,21.50
2022-09-23T12:57:35.328Z,21.60
2022-09-23T13:00:11.276Z,21.60
2022-09-23T13:03:10.978Z,21.90
2022-09-23T13:06:07.239Z,22.00
2022-09-23T13:08:39.144Z,22.30
2022-09-23T13:11:15.145Z,22.50
2022-09-23T13:13:48.350Z,22.70
2022-09-23T13:16:40.765Z,22.90
2022-09-23T13:19:25.939Z,22.90
2022-09-23T13:22:11.176Z,23.10
2022-09-23T13:24:53.930Z,23.10
2022-09-23T13:27:30.218Z,23.10
2022-09-23T13:30:05.611Z,23.00
2022-09-23T13:32:44.807Z,22.80
2022-09-23T13:35:15.285Z,22.50
2022-09-23T13:37:46.243Z,22.50
2022-09-23T13:40:20.951Z,22.70
2022-09-23T13:43:06.317Z,22.80
2022-09-23T13:45:37.953Z,22.80
2022-09-23T13:48:08.354Z,22.90
2022-09-23T13:50:38.410Z,23.00
2022-09-23T13:53:09.401Z,23.10
2022-09-23T13:55:37.531Z,23.20
2022-09-23T13:58:17.492Z,23.50
2022-09-23T14:00:44.884Z,23.60
2022-09-23T14:03:26.653Z,23.70
2022-09-23T14:05:55.936Z,23.80
2022-09-23T14:08:23.487Z,23.90
2022-09-23T14:10:50.335Z,23.90
2022-09-23T14:13:25.745Z,23.90
2022-09-23T14:15:55.598Z,24.00
2022-09-23T14:18:36.479Z,24.10
2022-09-23T14:21:03.846Z,23.80
2022-09-23T14:23:30.941Z,23.80
2022-09-23T14:25:59.023Z,23.50
2022-09-23T14:28:27.414Z,23.50
2022-09-23T14:30:58.427Z,23.40
2022-09-23T14:33:28.252Z,23.40
2022-09-23T14:36:02.928Z,23.40
2022-09-23T14:38:49.211Z,23.60
2022-09-23T14:41:25.231Z,23.20
2022-09-23T14:44:00.593Z,23.10
2022-09-23T14:46:36.657Z,22.90
2022-09-23T14:49:12.477Z,22.80
2022-09-23T14:51:54.703Z,22.60
2022-09-23T14:54:33.445Z,22.20
2022-09-23T14:57:08.642Z,21.90
2022-09-23T14:59:36.922Z,21.60
2022-09-23T15:02:26.494Z,21.50
2022-09-23T15:05:08.950Z,21.40
2022-09-23T15:07:37.665Z,21.30
2022-09-23T15:10:09.771Z,21.30
2022-09-23T15:12:37.069Z,21.10
2022-09-23T15:15:12.069Z,21.00
2022-09-23T15:17:39.209Z,21.00
2022-09-23T15:20:17.112Z,21.00
2022-09-23T15:22:45.922Z,20.90
2022-09-23T15:25:17.499Z,20.70
2022-09-23T15:28:16.640Z,20.50
2022-09-23T15:33:28.031Z,20.10
2022-09-23T15:35:54.849Z,20.00
2022-09-23T15:38:22.142Z,19.80
2022-09-23T15:40:49.216Z,19.60
2022-09-23T15:43:21.479Z,19.40
2022-09-23T15:45:53.098Z,19.30
2022-09-23T15:48:29.133Z,19.00
2022-09-23T15:50:55.836Z,18.70
2022-09-23T15:53:26.154Z,18.50
2022-09-23T15:55:54.182Z,18.30
2022-09-23T15:58:22.326Z,18.10
2022-09-23T16:00:56.387Z,17.90
2022-09-23T16:03:30.456Z,17.70
2022-09-23T16:06:01.235Z,17.50
2022-09-23T16:08:29.092Z,17.30
2022-09-23T16:10:56.445Z,17.20
2022-09-23T16:13:23.144Z,17.00
2022-09-23T16:15:50.064Z,16.80
2022-09-23T16:18:16.811Z,16.70
2022-09-23T16:20:44.765Z,16.50
2022-09-23T16:23:34.293Z,16.40
2022-09-23T16:26:18.281Z,16.30
2022-09-23T16:28:46.522Z,16.20
2022-09-23T16:31:16.188Z,16.10
2022-09-23T16:33:43.782Z,16.00
2022-09-23T16:36:21.019Z,15.90
2022-09-23T16:38:48.204Z,15.80
2022-09-23T16:41:15.017Z,15.70
2022-09-23T16:43:41.887Z,15.60
2022-09-23T16:46:13.368Z,15.50
2022-09-23T16:48:40.836Z,15.50
2022-09-23T16:51:16.318Z,15.40
2022-09-23T16:53:44.046Z,15.30
2022-09-23T16:56:13.010Z,15.20
2022-09-23T16:58:40.476Z,15.10
2022-09-23T17:01:29.295Z,15.00
2022-09-23T17:03:55.991Z,14.90
2022-09-23T17:06:25.164Z,14.70
2022-09-23T17:08:51.801Z,14.60
2022-09-23T17:11:19.397Z,14.50
2022-09-23T17:13:47.060Z,14.40
2022-09-23T17:16:25.915Z,14.20
2022-09-23T17:18:55.372Z,14.10
2022-09-23T17:21:26.985Z,14.00
2022-09-23T17:23:57.625Z,13.90
2022-09-23T17:26:25.871Z,13.80
2022-09-23T17:28:57.279Z,13.70
2022-09-23T17:31:25.379Z,13.60
2022-09-23T17:33:52.886Z,13.50
2022-09-23T17:36:20.695Z,13.50
2022-09-23T17:38:48.812Z,13.30
2022-09-23T17:41:17.200Z,13.20
2022-09-23T17:43:44.787Z,13.20
2022-09-23T17:46:16.271Z,13.20
2022-09-23T17:48:43.175Z,13.00
2022-09-23T17:51:16.519Z,12.90
2022-09-23T17:56:35.702Z,12.70
2022-09-23T17:59:02.801Z,12.60
2022-09-23T18:01:29.905Z,12.50
2022-09-23T18:04:01.517Z,12.40
2022-09-23T18:06:31.812Z,12.40
2022-09-23T18:09:04.202Z,12.20
2022-09-23T18:11:34.087Z,12.10
2022-09-23T18:14:04.094Z,12.00
2022-09-23T18:16:36.089Z,12.00
2022-09-23T18:19:03.941Z,11.90
2022-09-23T18:21:36.473Z,11.80
2022-09-23T18:24:28.491Z,11.70
2022-09-23T18:26:50.728Z,11.60
2022-09-23T18:29:18.542Z,11.50
2022-09-23T18:31:47.387Z,11.40
2022-09-23T18:34:16.822Z,11.30
2022-09-23T18:36:44.238Z,11.20
2022-09-23T18:39:11.333Z,11.10
2022-09-23T18:41:38.169Z,11.00
2022-09-23T18:44:04.920Z,11.00
2022-09-23T18:46:31.712Z,10.90
2022-09-23T18:49:17.654Z,10.90
2022-09-23T18:51:55.864Z,10.90
2022-09-23T18:54:28.745Z,10.90
2022-09-23T18:56:56.001Z,10.90
2022-09-23T18:59:25.862Z,10.90
2022-09-23T19:01:55.377Z,10.90
2022-09-23T19:04:24.424Z,10.90
2022-09-23T19:06:51.370Z,10.90
2022-09-23T19:09:18.475Z,10.90
2022-09-23T19:11:45.434Z,10.90
2022-09-23T19:14:13.489Z,10.90
2022-09-23T19:16:41.168Z,10.80
2022-09-23T19:19:08.586Z,10.80
2022-09-23T19:21:35.690Z,10.80
2022-09-23T19:24:05.620Z,10.70
2022-09-23T19:26:37.493Z,10.80
2022-09-23T19:29:05.514Z,10.70
2022-09-23T19:31:34.847Z,10.70
2022-09-23T19:34:06.055Z,10.70
2022-09-23T19:36:34.849Z,10.60
2022-09-23T19:39:04.828Z,10.50
2022-09-23T19:41:33.281Z,10.50
2022-09-23T19:44:03.692Z,10.40
2022-09-23T19:46:32.465Z,10.40
2022-09-23T19:49:00.540Z,10.40
2022-09-23T19:51:28.238Z,10.30
2022-09-23T19:53:54.918Z,10.30
2022-09-23T19:56:21.642Z,10.20
2022-09-23T19:58:52.363Z,10.20
2022-09-23T20:01:19.776Z,10.10
2022-09-23T20:06:40.970Z,10.00
2022-09-23T20:09:07.812Z,10.00
2022-09-23T20:11:35.066Z,9.90
2022-09-23T20:14:04.310Z,9.90
2022-09-23T20:16:33.607Z,9.90
2022-09-23T20:19:01.066Z,9.90
2022-09-23T20:21:29.317Z,9.80
2022-09-23T20:23:56.986Z,9.80
2022-09-23T20:26:42.111Z,9.80
2022-09-23T20:29:10.617Z,9.80
2022-09-23T20:31:37.844Z,9.80
2022-09-23T20:34:07.024Z,9.80
2022-09-23T20:36:35.319Z,9.80
2022-09-23T20:39:06.122Z,9.80
2022-09-23T20:41:36.760Z,9.80
2022-09-23T20:44:06.354Z,9.80
2022-09-23T20:46:33.956Z,9.80
2022-09-23T20:49:01.918Z,9.80
2022-09-23T20:51:28.809Z,9.80
2022-09-23T20:53:55.581Z,9.80
2022-09-23T20:56:22.778Z,9.80
2022-09-23T20:58:50.789Z,9.80
2022-09-23T21:01:18.199Z,9.80
2022-09-23T21:03:47.614Z,9.80
2022-09-23T21:06:16.259Z,9.80
2022-09-23T21:08:44.191Z,9.80
2022-09-23T21:11:13.730Z,9.80
2022-09-23T21:13:40.340Z,9.80
2022-09-23T21:16:10.612Z,9.80
2022-09-23T21:18:38.255Z,9.80
2022-09-23T21:21:06.069Z,9.70
2022-09-23T21:23:34.788Z,9.80
2022-09-23T21:26:11.021Z,9.80
2022-09-23T21:28:42.615Z,9.80
2022-09-23T21:31:25.281Z,9.80
2022-09-23T21:33:56.889Z,9.80
2022-09-23T21:36:24.573Z,9.80
2022-09-23T21:38:51.891Z,9.70
2022-09-23T21:41:19.033Z,9.70
2022-09-23T21:43:45.803Z,9.70
2022-09-23T21:46:15.449Z,9.70
2022-09-23T21:48:42.717Z,9.70
2022-09-23T21:51:12.874Z,9.60
2022-09-23T21:53:40.053Z,9.70
2022-09-23T21:56:14.034Z,9.60
2022-09-23T21:58:43.846Z,9.60
2022-09-23T22:01:19.275Z,9.60
2022-09-23T22:03:50.994Z,9.60
2022-09-23T22:06:21.476Z,9.60
2022-09-23T22:08:50.997Z,9.60
2022-09-23T22:11:38.918Z,9.50
2022-09-23T22:14:07.929Z,9.50
2022-09-23T22:16:35.942Z,9.50
2022-09-23T22:19:05.216Z,9.50
2022-09-23T22:21:31.981Z,9.50
2022-09-23T22:24:03.600Z,9.50
2022-09-23T22:26:39.103Z,9.50
2022-09-23T22:29:26.198Z,9.50
2022-09-23T22:32:12.103Z,9.60
2022-09-23T22:34:55.388Z,9.50
2022-09-23T22:37:34.593Z,9.60
2022-09-23T22:40:10.088Z,9.60
2022-09-23T22:42:37.490Z,9.60
2022-09-23T22:45:07.825Z,9.70
2022-09-23T22:47:37.058Z,9.60
2022-09-23T22:50:08.500Z,9.70
2022-09-23T22:52:35.869Z,9.70
2022-09-23T22:55:03.640Z,9.70
2022-09-23T22:57:31.207Z,9.80
2022-09-23T22:59:57.919Z,9.80
2022-09-23T23:02:24.712Z,9.90
2022-09-23T23:04:51.475Z,10.00
2022-09-23T23:07:21.152Z,10.00
2022-09-23T23:09:51.466Z,10.10
2022-09-23T23:12:20.396Z,10.10
2022-09-23T23:14:48.486Z,10.10
2022-09-23T23:17:15.196Z,10.10
2022-09-23T23:19:41.811Z,10.10
2022-09-23T23:22:08.512Z,10.10
2022-09-23T23:24:35.120Z,10.10
2022-09-23T23:27:01.791Z,10.10
2022-09-23T23:29:28.437Z,10.10
2022-09-23T23:31:55.232Z,10.10
2022-09-23T23:34:22.903Z,10.10
2022-09-23T23:36:54.516Z,10.00
2022-09-23T23:39:23.581Z,10.00
2022-09-23T23:41:58.261Z,10.00
2022-09-23T23:44:26.375Z,10.00
2022-09-23T23:46:54.123Z,10.00
2022-09-23T23:49:21.614Z,10.00
2022-09-23T23:51:48.578Z,10.00
2022-09-23T23:54:15.583Z,10.00
2022-09-23T23:56:42.601Z,9.90
2022-09-23T23:59:09.313Z,9.90
